Time;durP1;ratioP1;P1;durP2;ratioP2;P2;SDS_P1;SDS_P2;PMS_P1;PMS_P2;Temp;Humidity;BMP_temperature;BMP_pressure;BME280_temperature;BME280_humidity;BME280_pressure;Samples;Min_cycle;Max_cycle;Signal;HPM_P1;HPM_P2
2020/12/15 00:01:24;;;;;;;8.52;3.45;;;6.20;92.90;;;;;;5004426;28;20146;-67
2020/12/15 00:03:50;;;;;;;3.80;2.58;;;6.20;93.10;;;;;;5014497;28;20029;-68
2020/12/15 00:06:16;;;;;;;5.78;2.95;;;6.20;92.90;;;;;;5007847;28;20202;-68
2020/12/15 00:08:41;;;;;;;5.78;2.90;;;6.20;92.90;;;;;;5003239;28;20122;-68
2020/12/15 00:11:07;;;;;;;5.25;2.85;;;6.20;92.50;;;;;;5004743;28;20125;-68
2020/12/15 00:13:33;;;;;;;6.03;3.10;;;6.20;92.50;;;;;;5004531;28;20146;-67
2020/12/15 00:15:58;;;;;;;7.22;2.90;;;6.20;92.60;;;;;;5002643;28;20122;-68
2020/12/15 00:18:24;;;;;;;4.97;2.88;;;6.20;92.30;;;;;;5006972;28;20082;-68
2020/12/15 00:20:50;;;;;;;4.53;2.92;;;6.20;92.30;;;;;;5007544;28;20123;-67
2020/12/15 00:23:15;;;;;;;6.18;2.92;;;6.20;92.00;;;;;;5007822;28;20064;-68
2020/12/15 00:25:41;;;;;;;7.00;3.20;;;6.20;92.40;;;;;;5007404;28;20121;-69
2020/12/15 00:28:07;;;;;;;5.07;3.00;;;6.30;92.20;;;;;;5009585;28;20060;-67
2020/12/15 00:30:32;;;;;;;5.47;3.53;;;6.20;92.60;;;;;;5001495;28;20387;-68
2020/12/15 00:32:58;;;;;;;5.13;2.92;;;6.20;92.80;;;;;;5007951;28;20363;-68
2020/12/15 00:35:24;;;;;;;5.43;3.22;;;6.20;92.60;;;;;;5006915;28;20080;-68
2020/12/15 00:37:49;;;;;;;5.93;3.13;;;6.20;92.60;;;;;;4995000;28;20071;-68
2020/12/15 00:40:15;;;;;;;6.13;3.35;;;6.10;93.10;;;;;;5012068;28;20022;-67
2020/12/15 00:42:41;;;;;;;6.00;3.50;;;6.20;92.70;;;;;;4992802;28;20102;-67
2020/12/15 00:45:07;;;;;;;7.53;3.70;;;6.10;93.20;;;;;;5007620;28;20117;-67
2020/12/15 00:47:32;;;;;;;5.65;3.28;;;6.10;92.90;;;;;;5010021;28;20105;-68
2020/12/15 00:49:58;;;;;;;6.97;3.25;;;6.20;92.90;;;;;;5023629;28;20108;-67
2020/12/15 00:52:29;;;;;;;6.03;3.22;;;6.10;93.10;;;;;;5024881;28;20025;-67
2020/12/15 00:54:54;;;;;;;5.18;3.22;;;6.10;92.90;;;;;;5007036;28;20029;-68
2020/12/15 00:57:20;;;;;;;5.72;3.42;;;6.10;92.90;;;;;;5006967;28;20038;-68
2020/12/15 00:59:45;;;;;;;5.97;3.53;;;6.10;92.70;;;;;;5011579;28;20022;-67
2020/12/15 01:02:11;;;;;;;6.18;3.60;;;6.10;92.80;;;;;;5008031;28;20450;-70
2020/12/15 01:04:37;;;;;;;5.78;3.65;;;6.10;93.00;;;;;;5008449;28;20037;-67
2020/12/15 01:07:03;;;;;;;6.70;3.30;;;6.10;92.90;;;;;;5010750;28;20026;-67
2020/12/15 01:09:28;;;;;;;6.22;3.60;;;6.10;93.10;;;;;;5002251;28;20045;-68
2020/12/15 01:11:56;;;;;;;7.20;3.80;;;6.10;93.20;;;;;;5014763;28;20021;-67
2020/12/15 01:14:22;;;;;;;7.13;3.88;;;6.10;93.10;;;;;;4970469;28;20450;-68
2020/12/15 01:16:47;;;;;;;6.28;3.53;;;6.10;93.00;;;;;;5006734;28;20033;-67
2020/12/15 01:19:13;;;;;;;5.88;3.28;;;6.10;93.00;;;;;;5011496;28;20175;-68
2020/12/15 01:21:38;;;;;;;4.63;3.15;;;6.10;93.10;;;;;;5007505;28;20116;-67
2020/12/15 01:24:04;;;;;;;5.18;3.50;;;6.10;93.10;;;;;;5006484;28;20030;-67
2020/12/15 01:26:30;;;;;;;6.90;3.67;;;6.10;93.40;;;;;;4998535;28;20128;-68
2020/12/15 01:28:55;;;;;;;6.40;4.00;;;6.10;93.70;;;;;;5006819;28;20102;-68
2020/12/15 01:31:28;;;;;;;6.82;4.32;;;6.00;93.90;;;;;;5008101;28;20025;-68
2020/12/15 01:33:54;;;;;;;5.38;3.35;;;6.00;94.20;;;;;;5027530;28;20021;-67
2020/12/15 01:36:28;;;;;;;6.75;4.15;;;6.00;94.40;;;;;;5012400;28;20473;-67
2020/12/15 01:38:54;;;;;;;6.38;3.88;;;6.00;94.30;;;;;;5022997;28;20087;-68
2020/12/15 01:41:20;;;;;;;7.65;4.18;;;6.00;94.60;;;;;;5009046;28;20450;-68
2020/12/15 01:44:15;;;;;;;7.13;4.13;;;5.90;94.50;;;;;;5024967;28;20084;-68
2020/12/15 01:46:41;;;;;;;5.93;3.90;;;6.00;94.70;;;;;;4991365;28;20042;-67
2020/12/15 01:49:08;;;;;;;6.60;3.90;;;5.90;94.80;;;;;;4993403;28;20343;-69
2020/12/15 01:51:34;;;;;;;5.93;3.88;;;5.90;94.90;;;;;;5010137;28;20032;-68
2020/12/15 01:54:01;;;;;;;6.63;4.43;;;5.90;94.70;;;;;;5005818;28;20413;-67
2020/12/15 01:56:27;;;;;;;5.78;3.97;;;5.90;95.00;;;;;;5009488;28;20489;-69
2020/12/15 01:58:55;;;;;;;7.82;3.83;;;5.90;94.70;;;;;;5006060;28;20025;-69
2020/12/15 02:01:21;;;;;;;8.55;4.10;;;5.90;94.90;;;;;;5004738;28;20025;-68
2020/12/15 02:03:47;;;;;;;6.93;4.07;;;5.90;95.00;;;;;;5006551;28;20497;-68
2020/12/15 02:06:13;;;;;;;6.22;3.53;;;5.90;94.70;;;;;;4998095;28;20075;-69
2020/12/15 02:08:42;;;;;;;5.65;3.72;;;5.90;94.90;;;;;;5001312;28;20061;-68
2020/12/15 02:11:08;;;;;;;6.40;3.78;;;5.90;94.60;;;;;;5006896;28;20057;-68
2020/12/15 02:13:34;;;;;;;7.45;3.92;;;5.90;94.50;;;;;;4999514;28;20034;-68
2020/12/15 02:16:00;;;;;;;6.18;3.97;;;5.90;94.50;;;;;;5006681;28;20030;-68
2020/12/15 02:18:30;;;;;;;6.07;3.65;;;5.90;94.40;;;;;;5015595;28;20451;-68
2020/12/15 02:20:56;;;;;;;7.00;3.67;;;5.90;94.40;;;;;;4998743;28;20022;-68
2020/12/15 02:23:21;;;;;;;6.47;3.80;;;6.00;94.20;;;;;;5002522;28;20037;-69
2020/12/15 02:25:47;;;;;;;7.70;4.32;;;6.00;94.20;;;;;;5005546;28;20053;-68
2020/12/15 02:28:13;;;;;;;6.13;3.42;;;6.00;94.40;;;;;;5001660;28;20084;-68
2020/12/15 02:30:38;;;;;;;7.95;3.72;;;6.00;94.30;;;;;;5004118;28;20034;-68
2020/12/15 02:33:04;;;;;;;5.57;3.50;;;5.90;94.60;;;;;;5009056;28;20034;-68
2020/12/15 02:35:30;;;;;;;4.60;2.83;;;6.00;94.50;;;;;;5008934;28;20067;-67
2020/12/15 02:37:55;;;;;;;5.22;3.50;;;5.90;94.20;;;;;;5010319;28;20042;-68
2020/12/15 02:40:21;;;;;;;5.50;3.53;;;6.00;94.30;;;;;;5006945;28;20113;-70
2020/12/15 02:42:47;;;;;;;5.38;3.45;;;6.00;94.50;;;;;;5020432;28;20029;-67
2020/12/15 02:45:12;;;;;;;5.80;3.42;;;6.00;94.40;;;;;;4994748;28;20033;-68
2020/12/15 02:47:38;;;;;;;5.35;3.40;;;5.90;94.60;;;;;;5002025;28;20049;-67
2020/12/15 02:50:04;;;;;;;5.43;3.30;;;5.90;94.90;;;;;;4991333;28;20493;-69
2020/12/15 02:52:30;;;;;;;5.60;3.25;;;5.90;94.90;;;;;;5004635;28;20025;-68
2020/12/15 02:54:55;;;;;;;5.43;3.17;;;6.00;94.30;;;;;;5004738;28;20022;-67
2020/12/15 02:57:21;;;;;;;7.03;3.42;;;6.00;94.40;;;;;;5010852;28;20029;-67
2020/12/15 02:59:47;;;;;;;8.05;3.15;;;6.00;94.30;;;;;;5014575;28;20479;-68
2020/12/15 03:02:18;;;;;;;5.95;3.47;;;6.00;94.40;;;;;;5011435;28;20029;-69
2020/12/15 03:04:44;;;;;;;4.80;3.05;;;6.00;94.30;;;;;;5015009;28;20348;-67
2020/12/15 03:07:09;;;;;;;6.05;3.30;;;6.00;94.40;;;;;;5012692;28;20033;-68
2020/12/15 03:09:35;;;;;;;5.38;3.13;;;6.00;94.60;;;;;;5000781;28;20042;-68
2020/12/15 03:12:00;;;;;;;4.88;3.45;;;6.00;94.40;;;;;;4999911;28;20065;-67
2020/12/15 03:14:26;;;;;;;7.30;3.13;;;6.00;94.40;;;;;;4990275;28;20077;-69
2020/12/15 03:16:52;;;;;;;5.80;3.60;;;5.90;94.50;;;;;;4997560;28;20038;-67
2020/12/15 03:19:17;;;;;;;5.85;3.28;;;5.90;94.70;;;;;;4994224;28;20125;-68
2020/12/15 03:21:43;;;;;;;7.00;3.65;;;5.90;94.90;;;;;;5004962;28;20029;-67
2020/12/15 03:24:08;;;;;;;6.53;3.70;;;5.90;94.90;;;;;;5005565;28;20116;-68
2020/12/15 03:26:34;;;;;;;5.85;3.90;;;5.90;94.70;;;;;;5004845;28;20391;-67
2020/12/15 03:29:00;;;;;;;6.43;3.90;;;5.90;94.60;;;;;;5018424;28;20132;-68
2020/12/15 03:31:25;;;;;;;6.55;3.53;;;5.90;94.80;;;;;;5005190;28;20499;-68
2020/12/15 03:33:51;;;;;;;6.40;3.60;;;5.80;94.90;;;;;;5022897;28;20112;-67
2020/12/15 03:36:17;;;;;;;5.65;3.53;;;5.80;94.80;;;;;;4998318;28;20048;-67
2020/12/15 03:38:43;;;;;;;5.88;3.95;;;5.90;94.70;;;;;;5020224;28;20053;-70
2020/12/15 03:41:09;;;;;;;6.22;3.60;;;5.90;94.70;;;;;;5005660;28;20354;-69
2020/12/15 03:43:35;;;;;;;6.05;3.83;;;5.80;94.80;;;;;;5013030;28;20064;-68
2020/12/15 03:46:01;;;;;;;6.20;3.75;;;5.80;94.80;;;;;;5004988;28;20168;-68
2020/12/15 03:48:27;;;;;;;6.35;3.72;;;5.90;94.60;;;;;;5007224;28;20037;-68
2020/12/15 03:50:54;;;;;;;4.97;3.60;;;6.00;94.10;;;;;;5008762;28;20052;-67
2020/12/15 03:53:20;;;;;;;5.20;3.20;;;6.00;94.00;;;;;;5002999;28;20034;-67
2020/12/15 03:55:47;;;;;;;7.13;3.13;;;6.00;93.90;;;;;;5006218;28;20033;-68
2020/12/15 03:58:14;;;;;;;10.30;3.88;;;6.10;93.40;;;;;;4998705;28;20072;-67
2020/12/15 04:00:40;;;;;;;8.30;3.42;;;6.10;93.50;;;;;;5002230;28;20026;-68
2020/12/15 04:03:06;;;;;;;8.07;3.50;;;6.10;93.00;;;;;;5014226;28;20383;-67
2020/12/15 04:05:32;;;;;;;5.57;3.45;;;6.10;93.30;;;;;;5008881;28;20129;-68
2020/12/15 04:07:57;;;;;;;5.80;3.15;;;6.20;92.70;;;;;;5018305;28;20029;-68
2020/12/15 04:10:23;;;;;;;5.85;3.53;;;6.20;92.70;;;;;;5008565;28;20065;-68
2020/12/15 04:12:48;;;;;;;5.05;3.25;;;6.20;92.80;;;;;;5007547;28;20117;-69
2020/12/15 04:15:14;;;;;;;5.95;3.33;;;6.20;92.30;;;;;;5008903;28;20022;-67
2020/12/15 04:17:39;;;;;;;6.63;3.50;;;6.30;92.10;;;;;;5008039;28;20052;-67
2020/12/15 04:20:06;;;;;;;6.32;3.55;;;6.20;92.40;;;;;;5007215;28;20033;-68
2020/12/15 04:22:32;;;;;;;5.30;3.50;;;6.40;91.70;;;;;;5003199;28;20046;-67
2020/12/15 04:24:59;;;;;;;5.70;3.40;;;6.40;92.00;;;;;;5008459;28;20025;-68
2020/12/15 04:27:25;;;;;;;4.97;3.25;;;6.40;91.70;;;;;;5007192;28;20040;-67
2020/12/15 04:29:51;;;;;;;6.70;4.10;;;6.30;92.00;;;;;;4999701;28;20351;-67
2020/12/15 04:32:16;;;;;;;7.03;4.00;;;6.40;91.70;;;;;;5007023;28;20250;-68
2020/12/15 04:34:42;;;;;;;4.80;3.70;;;6.50;91.10;;;;;;5008881;28;20033;-67
2020/12/15 04:37:08;;;;;;;5.50;3.53;;;6.50;90.70;;;;;;5011264;28;20091;-70
2020/12/15 04:39:33;;;;;;;5.88;3.30;;;6.50;91.60;;;;;;5008858;28;20034;-68
2020/12/15 04:41:59;;;;;;;5.93;3.63;;;6.50;91.00;;;;;;5007497;28;20199;-67
2020/12/15 04:44:25;;;;;;;6.53;4.10;;;6.50;91.80;;;;;;4996905;28;20470;-69
2020/12/15 04:47:05;;;;;;;6.28;3.88;;;6.50;91.30;;;;;;4996581;28;20022;-68
2020/12/15 04:49:46;;;;;;;5.97;3.42;;;6.60;91.20;;;;;;5009087;28;20411;-67
2020/12/15 04:52:20;;;;;;;5.82;3.75;;;6.60;91.60;;;;;;5007137;28;20038;-67
2020/12/15 04:54:49;;;;;;;6.20;3.78;;;6.70;91.30;;;;;;5007763;28;20101;-67
2020/12/15 04:57:19;;;;;;;5.97;4.18;;;6.60;91.20;;;;;;5008298;28;20033;-67
2020/12/15 04:59:48;;;;;;;6.03;3.92;;;6.70;91.40;;;;;;5006743;28;20030;-67
2020/12/15 05:02:14;;;;;;;6.18;4.18;;;6.60;92.20;;;;;;5011357;28;20181;-67
2020/12/15 05:04:41;;;;;;;6.88;4.65;;;6.70;92.10;;;;;;5015779;28;20114;-68
2020/12/15 05:07:08;;;;;;;6.30;4.05;;;6.50;92.70;;;;;;5009855;28;20034;-68
2020/12/15 05:09:35;;;;;;;10.00;5.15;;;6.50;92.90;;;;;;4998073;28;20337;-67
2020/12/15 05:12:02;;;;;;;7.88;5.13;;;6.50;93.30;;;;;;5003820;28;20513;-68
2020/12/15 05:14:27;;;;;;;7.68;4.97;;;6.40;93.90;;;;;;5012369;28;20092;-67
2020/12/15 05:16:54;;;;;;;9.55;5.47;;;6.40;94.10;;;;;;5006832;28;20029;-68
2020/12/15 05:19:20;;;;;;;7.72;4.80;;;6.40;94.30;;;;;;5010441;28;20120;-68
2020/12/15 05:21:59;;;;;;;8.98;5.10;;;6.40;94.60;;;;;;4989134;28;20038;-68
2020/12/15 05:24:28;;;;;;;9.73;5.45;;;6.30;95.10;;;;;;5001538;28;20450;-68
2020/12/15 05:27:01;;;;;;;9.15;6.03;;;6.30;95.20;;;;;;5006541;28;20088;-68
2020/12/15 05:29:27;;;;;;;9.90;5.30;;;6.30;95.10;;;;;;5006665;28;20104;-68
2020/12/15 05:31:54;;;;;;;8.57;5.65;;;6.30;95.30;;;;;;4963933;28;20029;-70
2020/12/15 05:34:22;;;;;;;10.00;5.43;;;6.30;95.60;;;;;;4975102;28;20502;-68
2020/12/15 05:36:54;;;;;;;8.75;5.82;;;6.30;95.70;;;;;;4987709;28;20418;-68
2020/12/15 05:39:21;;;;;;;9.63;6.05;;;6.20;95.90;;;;;;4987887;28;20179;-68
2020/12/15 05:41:50;;;;;;;10.23;6.47;;;6.20;96.00;;;;;;4980472;28;20042;-67
2020/12/15 05:44:26;;;;;;;9.60;6.22;;;6.20;96.10;;;;;;4989360;28;20102;-68
2020/12/15 05:46:58;;;;;;;10.95;6.50;;;6.20;96.40;;;;;;4987122;28;20098;-68
2020/12/15 05:49:28;;;;;;;11.43;7.30;;;6.20;96.50;;;;;;4986730;28;20045;-68
2020/12/15 05:51:53;;;;;;;10.23;7.13;;;6.20;96.50;;;;;;4983795;28;20042;-70
2020/12/15 05:54:19;;;;;;;10.98;7.15;;;6.20;96.40;;;;;;4985217;28;20122;-68
2020/12/15 05:56:45;;;;;;;10.98;7.82;;;6.20;96.50;;;;;;4985644;28;20018;-68
2020/12/15 05:59:21;;;;;;;11.75;7.82;;;6.10;96.50;;;;;;5000839;28;20042;-68
2020/12/15 06:01:50;;;;;;;12.10;7.93;;;6.10;96.60;;;;;;4986444;28;20014;-68
2020/12/15 06:04:17;;;;;;;11.65;7.82;;;6.10;96.70;;;;;;4992340;28;20137;-68
2020/12/15 06:06:44;;;;;;;12.07;8.43;;;6.10;96.70;;;;;;4988488;28;20072;-68
2020/12/15 06:09:16;;;;;;;11.60;7.85;;;6.10;96.70;;;;;;4985378;28;20248;-68
2020/12/15 06:11:42;;;;;;;;;;;6.10;96.70;;;;;;4986399;28;20532;-70
2020/12/15 06:14:13;;;;;;;14.30;7.53;;;6.10;96.80;;;;;;4985791;28;19920;-69
2020/12/15 06:16:39;;;;;;;12.95;8.20;;;6.10;96.90;;;;;;4984605;28;20030;-69
2020/12/15 06:19:07;;;;;;;12.02;7.80;;;6.10;96.90;;;;;;4981186;28;20282;-68
2020/12/15 06:21:35;;;;;;;12.15;7.93;;;6.10;97.00;;;;;;4983795;28;20030;-68
2020/12/15 06:24:03;;;;;;;12.68;8.30;;;6.10;97.10;;;;;;5000695;28;20025;-68
2020/12/15 06:26:30;;;;;;;12.18;8.15;;;6.10;97.00;;;;;;5003007;28;20121;-69
2020/12/15 06:29:04;;;;;;;12.98;8.77;;;6.10;96.90;;;;;;4988622;28;20143;-68
2020/12/15 06:31:32;;;;;;;12.00;8.15;;;6.10;96.90;;;;;;4980149;28;20085;-68
2020/12/15 06:33:58;;;;;;;12.02;7.55;;;6.10;96.90;;;;;;4986829;28;20056;-68
2020/12/15 06:36:32;;;;;;;14.65;7.85;;;6.20;96.80;;;;;;4981538;28;20041;-68
2020/12/15 06:39:13;;;;;;;11.02;7.65;;;6.20;96.80;;;;;;4979329;28;20445;-68
2020/12/15 06:41:40;;;;;;;12.30;8.07;;;6.20;97.00;;;;;;4987476;28;20052;-68
2020/12/15 06:44:07;;;;;;;13.05;8.30;;;6.20;97.00;;;;;;4990353;28;20154;-68
2020/12/15 06:46:33;;;;;;;12.45;8.25;;;6.20;97.00;;;;;;4985979;28;20022;-68
2020/12/15 06:48:59;;;;;;;12.55;7.93;;;6.20;97.00;;;;;;4990412;28;20061;-68
2020/12/15 06:51:34;;;;;;;12.73;8.35;;;6.20;96.90;;;;;;4986041;28;20367;-68
2020/12/15 06:54:04;;;;;;;12.15;8.15;;;6.30;96.90;;;;;;4984762;28;20130;-68
2020/12/15 06:56:31;;;;;;;12.80;8.63;;;6.20;97.00;;;;;;4987051;28;20180;-70
2020/12/15 06:59:07;;;;;;;11.10;7.95;;;6.30;97.00;;;;;;4985627;28;20519;-68
2020/12/15 07:01:33;;;;;;;13.63;7.97;;;6.20;96.90;;;;;;4980460;28;20027;-68
2020/12/15 07:04:01;;;;;;;14.02;9.20;;;6.30;96.90;;;;;;4980853;28;20019;-67
2020/12/15 07:06:28;;;;;;;11.50;7.78;;;6.30;96.90;;;;;;4989865;28;20470;-68
2020/12/15 07:09:03;;;;;;;13.13;9.00;;;6.30;96.90;;;;;;4991996;28;20057;-68
2020/12/15 07:11:29;;;;;;;13.85;8.65;;;6.30;96.80;;;;;;4974292;28;20050;-68
2020/12/15 07:14:02;;;;;;;13.02;8.45;;;6.30;96.90;;;;;;4985703;28;20137;-69
2020/12/15 07:16:28;;;;;;;14.13;8.57;;;6.30;97.00;;;;;;4984313;28;20066;-68
2020/12/15 07:18:55;;;;;;;12.90;8.18;;;6.30;97.00;;;;;;4977117;28;20022;-68
2020/12/15 07:21:23;;;;;;;15.23;9.00;;;6.30;97.00;;;;;;4983367;28;20050;-68
2020/12/15 07:23:51;;;;;;;13.13;8.57;;;6.30;96.80;;;;;;4988089;28;20025;-67
2020/12/15 07:26:19;;;;;;;16.00;8.93;;;6.40;96.90;;;;;;4988946;28;20030;-68
2020/12/15 07:28:48;;;;;;;12.32;8.77;;;6.40;96.80;;;;;;4989852;28;20056;-68
2020/12/15 07:31:26;;;;;;;12.30;8.77;;;6.40;96.90;;;;;;4988593;28;20022;-68
2020/12/15 07:34:13;;;;;;;15.52;8.77;;;6.40;97.00;;;;;;4989321;28;20026;-67
2020/12/15 07:36:42;;;;;;;15.70;8.20;;;6.40;97.00;;;;;;4988174;28;20178;-67
2020/12/15 07:39:09;;;;;;;12.90;8.75;;;6.40;97.00;;;;;;4987390;28;20102;-67
2020/12/15 07:41:38;;;;;;;13.77;9.02;;;6.40;97.00;;;;;;4988564;28;20462;-68
2020/12/15 07:44:12;;;;;;;14.13;8.52;;;6.40;96.90;;;;;;4989016;28;20542;-68
2020/12/15 07:46:44;;;;;;;12.85;8.55;;;6.40;96.80;;;;;;5003425;28;20048;-69
2020/12/15 07:49:10;;;;;;;13.00;8.98;;;6.40;96.80;;;;;;4982171;28;20027;-68
2020/12/15 07:51:42;;;;;;;12.13;8.43;;;6.40;96.70;;;;;;5004383;28;20482;-68
2020/12/15 07:54:08;;;;;;;13.23;9.05;;;6.50;96.70;;;;;;4986041;28;20105;-68
2020/12/15 07:56:33;;;;;;;12.90;8.77;;;6.50;96.60;;;;;;4974660;28;20140;-69
2020/12/15 07:58:59;;;;;;;11.60;8.30;;;6.50;96.70;;;;;;4986075;28;20100;-70
2020/12/15 08:01:27;;;;;;;15.88;8.50;;;6.50;96.70;;;;;;4987458;28;20092;-67
2020/12/15 08:04:13;;;;;;;16.13;9.02;;;6.50;96.80;;;;;;4988573;28;20510;-67
2020/12/15 08:06:48;;;;;;;12.57;8.45;;;6.50;96.80;;;;;;4988611;28;20491;-68
2020/12/15 08:09:15;;;;;;;14.30;8.35;;;6.50;96.70;;;;;;4990282;28;20160;-68
2020/12/15 08:11:45;;;;;;;14.68;8.98;;;6.60;96.70;;;;;;4978224;28;20050;-68
2020/12/15 08:14:13;;;;;;;15.00;8.27;;;6.50;96.60;;;;;;4987688;28;20034;-68
2020/12/15 08:16:39;;;;;;;11.68;7.82;;;6.60;96.70;;;;;;4989655;28;20080;-69
2020/12/15 08:19:05;;;;;;;14.05;8.70;;;6.60;96.70;;;;;;4988960;28;20128;-67
2020/12/15 08:21:45;;;;;;;14.48;8.60;;;6.60;96.80;;;;;;4989711;28;20093;-68
2020/12/15 08:24:13;;;;;;;12.90;8.03;;;6.60;96.80;;;;;;4988780;28;20499;-68
2020/12/15 08:26:39;;;;;;;13.52;8.38;;;6.60;96.80;;;;;;4991087;28;20360;-68
2020/12/15 08:29:10;;;;;;;13.15;8.10;;;6.60;96.70;;;;;;4987362;28;20025;-69
2020/12/15 08:31:37;;;;;;;12.10;8.07;;;6.70;96.70;;;;;;4986925;28;20026;-68
2020/12/15 08:34:19;;;;;;;12.05;7.82;;;6.80;96.60;;;;;;5001112;28;20034;-68
2020/12/15 08:36:53;;;;;;;12.55;8.27;;;6.70;96.70;;;;;;4990634;28;20096;-68
2020/12/15 08:39:23;;;;;;;12.50;8.30;;;6.70;96.70;;;;;;4986894;28;20042;-68
2020/12/15 08:41:53;;;;;;;11.50;8.20;;;6.80;96.60;;;;;;4987010;28;20443;-68
2020/12/15 08:44:23;;;;;;;11.13;7.53;;;6.70;96.60;;;;;;4986554;28;20042;-68
2020/12/15 08:46:54;;;;;;;14.00;7.97;;;6.80;96.60;;;;;;4989927;28;20032;-68
2020/12/15 08:49:20;;;;;;;14.18;9.02;;;6.80;96.50;;;;;;4987232;28;20049;-68
2020/12/15 08:51:51;;;;;;;12.00;8.15;;;6.80;96.50;;;;;;4987973;28;20077;-68
2020/12/15 08:54:19;;;;;;;11.70;8.07;;;6.90;96.50;;;;;;4988974;28;20023;-69
2020/12/15 08:56:46;;;;;;;11.98;7.75;;;6.90;96.50;;;;;;4988366;28;20450;-68
2020/12/15 08:59:16;;;;;;;12.25;8.25;;;6.90;96.50;;;;;;4976626;28;20066;-68
2020/12/15 09:01:43;;;;;;;11.18;8.15;;;6.80;96.40;;;;;;4987931;28;20107;-69
2020/12/15 09:04:23;;;;;;;11.98;8.27;;;6.90;96.20;;;;;;4989199;28;20046;-69
2020/12/15 09:06:49;;;;;;;15.27;8.27;;;6.90;96.30;;;;;;4988695;28;20023;-68
2020/12/15 09:09:14;;;;;;;12.65;8.50;;;7.00;96.20;;;;;;4987780;28;20482;-68
2020/12/15 09:11:40;;;;;;;11.27;7.93;;;7.00;96.20;;;;;;4986292;28;20057;-68
2020/12/15 09:14:06;;;;;;;12.98;7.85;;;7.00;96.40;;;;;;4987973;28;20041;-68
2020/12/15 09:16:38;;;;;;;11.27;7.80;;;7.10;96.40;;;;;;4987351;28;20027;-69
2020/12/15 09:19:16;;;;;;;11.82;8.02;;;7.10;96.20;;;;;;4982964;28;20510;-68
2020/12/15 09:21:42;;;;;;;9.60;7.40;;;7.10;96.40;;;;;;4982296;28;20034;-68
2020/12/15 09:24:09;;;;;;;12.57;8.10;;;7.20;96.30;;;;;;4986387;28;20030;-68
2020/12/15 09:26:38;;;;;;;12.05;8.20;;;7.30;96.00;;;;;;4987283;28;20140;-70
2020/12/15 09:29:09;;;;;;;11.50;6.97;;;7.40;95.90;;;;;;4987592;28;20103;-68
2020/12/15 09:31:34;;;;;;;9.55;6.53;;;7.40;95.40;;;;;;4987989;28;20027;-68
2020/12/15 09:34:00;;;;;;;8.45;6.22;;;7.50;95.40;;;;;;4992523;28;20035;-68
2020/12/15 09:36:26;;;;;;;9.32;6.40;;;7.60;95.50;;;;;;4988495;28;20124;-69
2020/12/15 09:38:51;;;;;;;10.57;6.55;;;7.50;95.20;;;;;;4986477;28;20127;-69
2020/12/15 09:41:17;;;;;;;10.02;6.65;;;7.50;95.20;;;;;;4988433;28;20105;-69
2020/12/15 09:43:43;;;;;;;10.80;7.22;;;7.50;95.10;;;;;;4979783;28;20054;-68
2020/12/15 09:46:08;;;;;;;8.90;6.32;;;7.50;95.20;;;;;;4968028;28;20127;-68
2020/12/15 09:48:34;;;;;;;10.30;6.97;;;7.50;95.20;;;;;;5001020;28;20081;-68
2020/12/15 09:51:00;;;;;;;11.27;7.10;;;7.60;95.40;;;;;;4984041;28;20022;-69
2020/12/15 09:53:27;;;;;;;9.25;6.72;;;7.60;95.20;;;;;;4984957;28;20467;-69
2020/12/15 09:55:53;;;;;;;11.95;6.72;;;7.60;95.40;;;;;;4986376;28;20038;-68
2020/12/15 09:58:18;;;;;;;9.43;6.45;;;7.60;95.50;;;;;;4985735;28;20026;-68
2020/12/15 10:00:44;;;;;;;10.85;6.55;;;7.60;95.50;;;;;;4985689;28;20031;-68
2020/12/15 10:03:09;;;;;;;10.35;6.97;;;7.60;95.50;;;;;;4986945;28;20220;-68
2020/12/15 10:05:35;;;;;;;9.70;6.55;;;7.70;95.60;;;;;;4986298;28;20452;-70
2020/12/15 10:08:01;;;;;;;9.45;6.85;;;7.70;95.40;;;;;;4981951;28;20034;-68
2020/12/15 10:10:26;;;;;;;10.63;6.55;;;7.80;95.00;;;;;;4967135;28;20030;-68
2020/12/15 10:12:52;;;;;;;10.50;6.55;;;7.80;94.90;;;;;;4986716;28;20034;-68
2020/12/15 10:15:18;;;;;;;10.07;7.10;;;7.80;95.10;;;;;;5005293;28;20121;-68
2020/12/15 10:17:43;;;;;;;9.52;6.75;;;7.80;95.10;;;;;;4982315;28;20065;-69
2020/12/15 10:20:09;;;;;;;10.75;7.10;;;7.90;95.10;;;;;;4985850;28;20070;-68
2020/12/15 10:22:35;;;;;;;7.72;6.10;;;8.00;95.00;;;;;;4991990;28;20119;-68
2020/12/15 10:25:01;;;;;;;10.48;6.00;;;8.10;94.70;;;;;;5000763;28;20038;-68
2020/12/15 10:27:27;;;;;;;8.82;6.50;;;8.20;94.90;;;;;;4983320;28;20064;-68
2020/12/15 10:29:52;;;;;;;8.43;5.50;;;8.30;94.50;;;;;;4979664;28;20041;-70
2020/12/15 10:32:18;;;;;;;10.63;6.35;;;8.20;94.30;;;;;;4985066;28;20041;-70
2020/12/15 10:34:45;;;;;;;10.15;6.68;;;8.20;94.10;;;;;;4986481;28;20104;-68
2020/12/15 10:37:11;;;;;;;11.95;6.70;;;8.30;94.50;;;;;;4984818;28;20415;-68
2020/12/15 10:39:36;;;;;;;8.63;6.32;;;8.30;94.30;;;;;;4986060;28;20031;-70
2020/12/15 10:42:02;;;;;;;8.38;6.28;;;8.30;94.20;;;;;;4984767;28;20038;-68
2020/12/15 10:44:28;;;;;;;10.85;6.50;;;8.30;94.20;;;;;;4983002;28;20429;-69
2020/12/15 10:46:53;;;;;;;9.68;6.22;;;8.30;93.60;;;;;;4968913;28;20402;-69
2020/12/15 10:49:19;;;;;;;8.45;6.05;;;8.40;93.90;;;;;;4972864;28;20042;-68
2020/12/15 10:51:49;;;;;;;9.38;6.45;;;8.40;94.30;;;;;;4972973;28;20073;-69
2020/12/15 10:54:15;;;;;;;9.13;6.50;;;8.30;93.80;;;;;;4980895;28;20039;-68
2020/12/15 10:56:42;;;;;;;9.95;6.75;;;8.30;94.10;;;;;;4980960;28;20030;-68
2020/12/15 10:59:08;;;;;;;10.38;6.43;;;8.30;93.80;;;;;;4986588;28;20121;-69
2020/12/15 11:01:33;;;;;;;9.32;6.10;;;8.30;94.00;;;;;;4989032;28;20534;-70
2020/12/15 11:03:59;;;;;;;9.00;6.22;;;8.20;94.30;;;;;;4983952;28;20105;-69
2020/12/15 11:06:25;;;;;;;12.10;7.25;;;8.20;94.20;;;;;;4980674;28;20409;-68
2020/12/15 11:08:51;;;;;;;9.75;6.70;;;8.20;94.20;;;;;;4986773;28;20513;-69
2020/12/15 11:11:17;;;;;;;9.90;6.55;;;8.20;94.50;;;;;;4985329;28;20034;-69
2020/12/15 11:13:42;;;;;;;9.60;6.53;;;8.20;94.40;;;;;;4982346;28;20474;-69
2020/12/15 11:16:08;;;;;;;10.63;6.75;;;8.20;94.50;;;;;;4987730;28;20052;-70
2020/12/15 11:18:34;;;;;;;8.95;6.15;;;8.20;94.00;;;;;;4985309;28;20030;-69
2020/12/15 11:21:00;;;;;;;10.45;6.57;;;8.20;94.20;;;;;;4985238;28;20101;-69
2020/12/15 11:23:25;;;;;;;10.32;6.45;;;8.20;94.10;;;;;;4982141;28;20019;-69
2020/12/15 11:25:51;;;;;;;14.50;6.97;;;8.30;93.90;;;;;;4980211;28;20045;-68
2020/12/15 11:28:17;;;;;;;12.63;7.75;;;8.30;94.30;;;;;;4991521;28;20192;-69
2020/12/15 11:30:43;;;;;;;11.00;7.10;;;8.30;94.70;;;;;;4978495;28;20034;-69
2020/12/15 11:33:09;;;;;;;9.52;6.88;;;8.30;94.20;;;;;;4974675;28;20131;-70
2020/12/15 11:35:35;;;;;;;11.65;7.35;;;8.30;94.40;;;;;;4979912;28;20089;-69
2020/12/15 11:38:05;;;;;;;9.00;6.35;;;8.30;94.40;;;;;;4984163;28;20029;-70
2020/12/15 11:40:31;;;;;;;11.30;6.97;;;8.30;94.30;;;;;;4975930;28;20325;-71
2020/12/15 11:42:59;;;;;;;12.50;7.80;;;8.30;94.40;;;;;;4985974;28;20403;-69
2020/12/15 11:45:25;;;;;;;10.73;7.13;;;8.30;94.40;;;;;;4982615;28;20438;-68
2020/12/15 11:47:52;;;;;;;14.27;8.05;;;8.30;94.30;;;;;;4985702;28;20042;-69
2020/12/15 11:50:19;;;;;;;12.82;7.88;;;8.30;94.70;;;;;;4979326;28;20279;-68
2020/12/15 11:52:45;;;;;;;9.30;6.95;;;8.40;94.70;;;;;;4981340;28;20438;-71
2020/12/15 11:55:10;;;;;;;13.30;7.72;;;8.40;94.50;;;;;;4966879;28;20077;-69
2020/12/15 11:57:36;;;;;;;10.70;7.05;;;8.50;94.70;;;;;;4976382;28;20125;-68
2020/12/15 12:00:04;;;;;;;9.98;7.18;;;8.40;94.40;;;;;;4982587;28;20026;-69
2020/12/15 12:02:30;;;;;;;13.38;7.60;;;8.40;94.20;;;;;;4977048;28;20022;-68
2020/12/15 12:04:56;;;;;;;10.50;7.32;;;8.50;94.60;;;;;;4981482;28;20030;-68
2020/12/15 12:07:22;;;;;;;12.63;7.53;;;8.40;94.40;;;;;;4989669;28;20044;-69
2020/12/15 12:09:47;;;;;;;11.98;6.90;;;8.40;94.50;;;;;;4996315;28;20034;-69
2020/12/15 12:12:13;;;;;;;12.07;7.53;;;8.40;94.60;;;;;;4980273;28;20031;-69
2020/12/15 12:14:38;;;;;;;13.60;7.65;;;8.40;94.40;;;;;;4991278;28;20029;-69
2020/12/15 12:17:04;;;;;;;12.70;8.43;;;8.30;94.70;;;;;;4983889;28;20344;-69
2020/12/15 12:19:29;;;;;;;14.15;8.55;;;8.30;94.60;;;;;;4990545;28;20030;-69
2020/12/15 12:21:55;;;;;;;11.68;8.15;;;8.30;94.90;;;;;;4973848;28;20023;-68
2020/12/15 12:24:21;;;;;;;11.60;8.57;;;8.30;94.80;;;;;;4983752;28;20022;-68
2020/12/15 12:26:50;;;;;;;13.85;9.02;;;8.30;95.20;;;;;;4982036;28;20106;-68
2020/12/15 12:29:16;;;;;;;12.50;8.88;;;8.30;95.40;;;;;;4985505;28;20031;-68
2020/12/15 12:31:46;;;;;;;12.73;8.77;;;8.30;95.40;;;;;;4980096;28;20045;-68
2020/12/15 12:34:12;;;;;;;15.02;8.73;;;8.30;95.70;;;;;;4979937;28;20181;-69
2020/12/15 12:36:39;;;;;;;13.00;9.35;;;8.20;95.80;;;;;;4982988;28;20141;-70
2020/12/15 12:39:05;;;;;;;13.73;9.05;;;8.20;95.80;;;;;;4983783;28;20106;-68
2020/12/15 12:41:30;;;;;;;13.93;9.07;;;8.20;95.90;;;;;;4980607;28;20114;-68
2020/12/15 12:43:56;;;;;;;12.18;9.07;;;8.20;95.80;;;;;;4973401;28;20113;-69
2020/12/15 12:46:22;;;;;;;13.95;9.63;;;8.20;96.10;;;;;;4977665;28;20128;-70
2020/12/15 12:48:47;;;;;;;13.57;9.13;;;8.20;96.20;;;;;;4981219;28;20041;-69
2020/12/15 12:51:16;;;;;;;15.65;10.57;;;8.20;96.30;;;;;;4994453;28;20356;-68
2020/12/15 12:53:43;;;;;;;15.00;9.52;;;8.20;96.30;;;;;;4972604;28;20094;-68